createdAt,value
2018-11-25T00:00:06.837Z,64.58
2018-11-25T00:00:38.519Z,60.48
2018-11-25T00:01:09.643Z,59.58
2018-11-25T00:01:40.746Z,62.62
2018-11-25T00:02:11.866Z,64.75
2018-11-25T00:02:42.971Z,63.70
2018-11-25T00:03:14.141Z,60.12
2018-11-25T00:03:45.248Z,58.90
2018-11-25T00:04:17.080Z,66.37
2018-11-25T00:04:48.214Z,60.90
2018-11-25T00:05:19.348Z,67.75
2018-11-25T00:05:50.489Z,68.22
2018-11-25T00:06:21.955Z,60.55
2018-11-25T00:06:53.083Z,69.53
2018-11-25T00:07:24.396Z,59.40
2018-11-25T00:07:55.547Z,60.55
2018-11-25T00:08:26.684Z,64.50
2018-11-25T00:08:57.815Z,60.73
2018-11-25T00:09:28.926Z,61.25
2018-11-25T00:10:00.067Z,65.70
2018-11-25T00:10:31.182Z,68.15
2018-11-25T00:11:02.347Z,64.65
2018-11-25T00:11:33.568Z,67.05
2018-11-25T00:12:04.754Z,67.75
2018-11-25T00:12:35.892Z,66.17
2018-11-25T00:13:07.017Z,55.67
2018-11-25T00:13:38.159Z,59.73
2018-11-25T00:14:09.302Z,58.63
2018-11-25T00:14:40.456Z,58.98
2018-11-25T00:15:11.555Z,61.20
2018-11-25T00:15:42.687Z,63.83
2018-11-25T00:16:13.816Z,59.80
2018-11-25T00:16:44.959Z,60.28
2018-11-25T00:17:16.094Z,60.55
2018-11-25T00:17:47.358Z,60.48
2018-11-25T00:18:18.505Z,60.25
2018-11-25T00:18:49.595Z,58.70
2018-11-25T00:19:20.698Z,58.60
2018-11-25T00:19:51.824Z,56.18
2018-11-25T00:20:22.942Z,58.75
2018-11-25T00:20:54.059Z,52.23
2018-11-25T00:21:25.218Z,55.80
2018-11-25T00:21:56.355Z,55.78
2018-11-25T00:22:27.474Z,51.45
2018-11-25T00:22:58.691Z,48.92
2018-11-25T00:23:29.828Z,51.02
2018-11-25T00:24:01.090Z,57.78
2018-11-25T00:24:33.299Z,56.88
2018-11-25T00:25:04.608Z,57.20
2018-11-25T00:25:35.737Z,55.43
2018-11-25T00:26:07.719Z,59.10
2018-11-25T00:26:38.871Z,63.38
2018-11-25T00:27:09.995Z,64.07
2018-11-25T00:27:41.200Z,62.48
2018-11-25T00:28:12.359Z,62.05
2018-11-25T00:28:43.853Z,67.47
2018-11-25T00:29:14.972Z,56.15
2018-11-25T00:29:46.104Z,55.25
2018-11-25T00:30:17.276Z,55.23
2018-11-25T00:30:48.412Z,55.83
2018-11-25T00:31:19.550Z,59.20
2018-11-25T00:31:50.675Z,59.80
2018-11-25T00:32:22.365Z,58.70
2018-11-25T00:32:53.499Z,61.55
2018-11-25T00:33:24.682Z,62.70
2018-11-25T00:33:55.800Z,62.20
2018-11-25T00:34:27.027Z,62.85
2018-11-25T00:34:58.160Z,57.03
2018-11-25T00:35:29.272Z,62.38
2018-11-25T00:36:00.399Z,60.95
2018-11-25T00:36:31.513Z,63.65
2018-11-25T00:37:02.823Z,61.05
2018-11-25T00:37:33.926Z,64.42
2018-11-25T00:38:05.051Z,61.02
2018-11-25T00:38:36.167Z,58.30
2018-11-25T00:39:07.320Z,55.88
2018-11-25T00:39:39.736Z,58.45
2018-11-25T00:40:10.947Z,59.55
2018-11-25T00:40:42.904Z,62.15
2018-11-25T00:41:14.037Z,63.05
2018-11-25T00:41:45.176Z,57.70
2018-11-25T00:42:16.325Z,56.30
2018-11-25T00:42:47.435Z,59.95
2018-11-25T00:43:18.552Z,58.40
2018-11-25T00:43:49.721Z,58.08
2018-11-25T00:44:20.883Z,56.53
2018-11-25T00:44:52.017Z,61.33
2018-11-25T00:45:23.891Z,57.65
2018-11-25T00:45:55.097Z,61.40
2018-11-25T00:46:26.246Z,58.65
2018-11-25T00:46:58.485Z,59.45
2018-11-25T00:47:29.589Z,59.53
2018-11-25T00:48:01.160Z,59.45
2018-11-25T00:48:32.284Z,63.25
2018-11-25T00:49:03.389Z,57.90
2018-11-25T00:49:34.522Z,55.50
2018-11-25T00:50:05.652Z,61.05
2018-11-25T00:50:36.757Z,63.17
2018-11-25T00:51:08.177Z,55.60
2018-11-25T00:51:39.303Z,61.73
2018-11-25T00:52:10.508Z,60.67
2018-11-25T00:52:41.640Z,54.83
2018-11-25T00:53:12.886Z,57.73
2018-11-25T00:53:44.124Z,59.50
2018-11-25T00:54:15.244Z,56.28
2018-11-25T00:54:46.347Z,60.73
2018-11-25T00:55:18.005Z,57.50
2018-11-25T00:55:50.164Z,54.95
2018-11-25T00:56:21.311Z,55.48
2018-11-25T00:56:52.953Z,61.60
2018-11-25T00:57:24.067Z,56.50
2018-11-25T00:57:55.183Z,54.35
2018-11-25T00:58:26.331Z,55.10
2018-11-25T00:58:57.434Z,54.65
2018-11-25T00:59:28.680Z,55.80
2018-11-25T00:59:59.794Z,53.92
2018-11-25T01:00:30.914Z,57.88
2018-11-25T01:01:02.046Z,56.45
2018-11-25T01:01:33.209Z,56.20
2018-11-25T01:02:05.463Z,54.75
2018-11-25T01:02:36.577Z,53.92
2018-11-25T01:03:07.664Z,56.33
2018-11-25T01:03:39.768Z,56.20
2018-11-25T01:04:10.978Z,64.72
2018-11-25T01:04:42.843Z,59.15
2018-11-25T01:05:14.015Z,60.40
2018-11-25T01:05:45.177Z,54.18
2018-11-25T01:06:16.275Z,57.65
2018-11-25T01:06:47.451Z,57.20
2018-11-25T01:07:18.570Z,60.52
2018-11-25T01:07:49.695Z,59.50
2018-11-25T01:08:20.819Z,55.88
2018-11-25T01:08:51.923Z,57.17
2018-11-25T01:09:23.027Z,53.87
2018-11-25T01:09:54.819Z,56.13
2018-11-25T01:10:26.008Z,55.35
2018-11-25T01:10:57.111Z,56.42
2018-11-25T01:11:28.275Z,56.68
2018-11-25T01:11:59.435Z,50.78
2018-11-25T01:12:30.563Z,50.33
2018-11-25T01:13:01.657Z,51.28
2018-11-25T01:13:32.851Z,52.95
2018-11-25T01:14:03.984Z,57.23
2018-11-25T01:14:35.103Z,50.30
2018-11-25T01:15:06.230Z,53.95
2018-11-25T01:15:37.331Z,54.05
2018-11-25T01:16:08.554Z,50.70
2018-11-25T01:16:39.666Z,52.45
2018-11-25T01:17:10.800Z,50.75
2018-11-25T01:17:41.918Z,54.38
2018-11-25T01:18:13.383Z,55.12
2018-11-25T01:18:44.487Z,59.20
2018-11-25T01:19:15.603Z,57.48
2018-11-25T01:19:46.703Z,59.35
2018-11-25T01:20:17.845Z,55.58
2018-11-25T01:20:48.986Z,57.05
2018-11-25T01:21:20.145Z,55.55
2018-11-25T01:21:52.336Z,59.38
2018-11-25T01:22:23.783Z,57.62
2018-11-25T01:22:55.518Z,58.68
2018-11-25T01:23:27.295Z,57.53
2018-11-25T01:23:58.487Z,57.85
2018-11-25T01:24:30.307Z,61.83
2018-11-25T01:25:01.407Z,62.20
2018-11-25T01:25:32.575Z,62.73
2018-11-25T01:26:03.711Z,63.55
2018-11-25T01:26:34.882Z,57.90
2018-11-25T01:27:05.984Z,61.85
2018-11-25T01:27:37.135Z,59.88
2018-11-25T01:28:08.323Z,64.85
2018-11-25T01:28:39.480Z,58.83
2018-11-25T01:29:10.959Z,61.10
2018-11-25T01:29:42.067Z,65.62
2018-11-25T01:30:14.929Z,63.02
2018-11-25T01:30:46.697Z,60.80
2018-11-25T01:31:17.791Z,59.10
2018-11-25T01:31:49.007Z,62.62
2018-11-25T01:32:20.189Z,61.08
2018-11-25T01:32:51.920Z,60.30
2018-11-25T01:33:23.020Z,63.40
2018-11-25T01:33:54.155Z,68.25
2018-11-25T01:34:25.253Z,63.90
2018-11-25T01:35:01.102Z,66.12
2018-11-25T01:35:27.934Z,63.38
2018-11-25T01:35:59.590Z,61.48
2018-11-25T01:36:31.499Z,63.98
2018-11-25T01:37:03.238Z,65.50
2018-11-25T01:37:34.349Z,65.25
2018-11-25T01:38:05.447Z,63.52
2018-11-25T01:38:37.118Z,60.73
2018-11-25T01:39:08.225Z,62.10
2018-11-25T01:39:39.329Z,59.30
2018-11-25T01:40:10.435Z,59.13
2018-11-25T01:40:42.277Z,58.40
2018-11-25T01:41:13.390Z,60.35
2018-11-25T01:41:44.567Z,56.20
2018-11-25T01:42:15.704Z,58.95
2018-11-25T01:42:46.902Z,59.75
2018-11-25T01:43:18.064Z,56.28
2018-11-25T01:43:49.163Z,57.50
2018-11-25T01:44:21.080Z,58.17
2018-11-25T01:44:53.151Z,58.48
2018-11-25T01:45:24.294Z,60.25
2018-11-25T01:45:55.445Z,60.30
2018-11-25T01:46:27.400Z,63.05
2018-11-25T01:46:58.535Z,63.05
2018-11-25T01:47:29.651Z,62.60
2018-11-25T01:48:00.839Z,63.65
2018-11-25T01:48:32.392Z,62.03
2018-11-25T01:49:04.111Z,60.17
2018-11-25T01:49:35.227Z,64.90
2018-11-25T01:50:06.437Z,54.25
2018-11-25T01:50:37.582Z,57.93
2018-11-25T01:51:08.677Z,62.88
2018-11-25T01:51:40.107Z,66.70
2018-11-25T01:52:11.231Z,62.70
2018-11-25T01:52:42.402Z,63.48
2018-11-25T01:53:14.153Z,59.95
2018-11-25T01:53:45.263Z,60.08
2018-11-25T01:54:16.457Z,57.30
2018-11-25T01:54:47.612Z,58.70
2018-11-25T01:55:18.722Z,62.20
2018-11-25T01:55:49.822Z,66.40
2018-11-25T01:56:21.654Z,59.50
2018-11-25T01:56:52.799Z,63.05
2018-11-25T01:57:23.895Z,58.10
2018-11-25T01:57:55.036Z,62.17
2018-11-25T01:58:27.332Z,61.70
2018-11-25T01:58:58.471Z,58.80
2018-11-25T01:59:29.568Z,63.33
2018-11-25T02:00:00.800Z,65.85
2018-11-25T02:00:31.896Z,58.45
2018-11-25T02:01:03.989Z,68.35
2018-11-25T02:01:35.222Z,65.40
2018-11-25T02:02:06.319Z,65.30
2018-11-25T02:02:37.413Z,63.70
2018-11-25T02:03:08.525Z,63.50
2018-11-25T02:03:39.691Z,62.53
2018-11-25T02:04:10.791Z,59.50
2018-11-25T02:04:41.985Z,60.03
2018-11-25T02:05:13.931Z,59.53
2018-11-25T02:05:45.110Z,61.55
2018-11-25T02:06:16.278Z,62.83
2018-11-25T02:06:47.383Z,62.73
2018-11-25T02:07:18.568Z,56.10
2018-11-25T02:07:49.672Z,60.52
2018-11-25T02:08:20.882Z,61.33
2018-11-25T02:08:52.052Z,61.00
2018-11-25T02:09:23.155Z,64.05
2018-11-25T02:09:54.323Z,57.20
2018-11-25T02:10:25.435Z,54.75
2018-11-25T02:10:56.582Z,59.38
2018-11-25T02:11:27.935Z,60.00
2018-11-25T02:11:59.082Z,65.92
2018-11-25T02:12:30.177Z,54.85
2018-11-25T02:13:01.877Z,58.13
2018-11-25T02:13:33.049Z,60.25
2018-11-25T02:14:04.162Z,57.90
2018-11-25T02:14:35.284Z,60.20
2018-11-25T02:15:06.429Z,60.20
2018-11-25T02:15:37.563Z,59.27
2018-11-25T02:16:08.688Z,61.33
2018-11-25T02:16:39.806Z,62.67
2018-11-25T02:17:10.951Z,60.40
2018-11-25T02:17:42.044Z,63.83
2018-11-25T02:18:13.663Z,59.35
2018-11-25T02:18:45.936Z,61.13
2018-11-25T02:19:17.031Z,62.25
2018-11-25T02:19:48.168Z,63.55
2018-11-25T02:20:19.824Z,56.60
2018-11-25T02:20:50.967Z,59.25
2018-11-25T02:21:22.076Z,55.28
2018-11-25T02:21:53.207Z,58.48
2018-11-25T02:22:24.353Z,58.80
2018-11-25T02:22:55.502Z,61.80
2018-11-25T02:23:27.590Z,62.03
2018-11-25T02:23:59.219Z,60.05
2018-11-25T02:24:31.354Z,60.60
2018-11-25T02:25:02.483Z,57.33
2018-11-25T02:25:33.855Z,57.67
2018-11-25T02:26:06.556Z,54.35
2018-11-25T02:26:37.777Z,61.30
2018-11-25T02:27:10.016Z,52.08
2018-11-25T02:27:41.161Z,54.85
2018-11-25T02:28:12.252Z,57.60
2018-11-25T02:28:43.347Z,59.63
2018-11-25T02:29:15.113Z,58.25
2018-11-25T02:29:46.255Z,57.83
2018-11-25T02:30:17.561Z,61.88
2018-11-25T02:30:48.725Z,58.15
2018-11-25T02:31:19.883Z,58.63
2018-11-25T02:31:51.080Z,58.85
2018-11-25T02:32:23.337Z,56.63
2018-11-25T02:32:54.476Z,56.92
2018-11-25T02:33:25.762Z,56.98
2018-11-25T02:33:56.912Z,58.68
2018-11-25T02:34:28.105Z,61.68
2018-11-25T02:34:59.761Z,61.58
2018-11-25T02:35:30.971Z,63.08
2018-11-25T02:36:02.223Z,62.33
2018-11-25T02:36:33.333Z,60.25
2018-11-25T02:37:04.467Z,66.40
2018-11-25T02:37:35.663Z,61.50
2018-11-25T02:38:06.773Z,62.17
2018-11-25T02:38:38.471Z,63.23
2018-11-25T02:39:09.911Z,62.53
2018-11-25T02:39:41.019Z,63.80
2018-11-25T02:40:12.803Z,65.57
2018-11-25T02:40:44.423Z,60.58
2018-11-25T02:41:16.259Z,60.08
2018-11-25T02:41:47.367Z,60.78
2018-11-25T02:42:18.800Z,64.32
2018-11-25T02:42:49.980Z,62.23
2018-11-25T02:43:21.091Z,60.28
2018-11-25T02:43:52.427Z,58.28
2018-11-25T02:44:23.543Z,60.05
2018-11-25T02:44:54.666Z,61.28
2018-11-25T02:45:25.851Z,61.42
2018-11-25T02:45:56.967Z,62.45
2018-11-25T02:46:28.224Z,57.98
2018-11-25T02:46:59.359Z,62.67
2018-11-25T02:47:30.569Z,60.55
2018-11-25T02:48:01.698Z,64.80
2018-11-25T02:48:32.790Z,63.90
2018-11-25T02:49:04.415Z,64.37
2018-11-25T02:49:36.518Z,58.40
2018-11-25T02:50:07.636Z,65.67
2018-11-25T02:50:38.767Z,62.70
2018-11-25T02:51:09.898Z,60.00
2018-11-25T02:51:41.022Z,66.20
2018-11-25T02:52:12.118Z,63.08
2018-11-25T02:52:43.228Z,64.95
2018-11-25T02:53:14.354Z,66.40
2018-11-25T02:53:45.462Z,61.95
2018-11-25T02:54:17.587Z,60.48
2018-11-25T02:54:48.738Z,63.60
2018-11-25T02:55:19.830Z,58.38
2018-11-25T02:55:50.919Z,57.73
2018-11-25T02:56:22.092Z,63.48
2018-11-25T02:56:53.195Z,59.13
2018-11-25T02:57:24.983Z,62.27
2018-11-25T02:57:56.083Z,59.85
2018-11-25T02:58:27.451Z,62.03
2018-11-25T02:58:58.594Z,58.65
2018-11-25T02:59:29.700Z,60.03
2018-11-25T03:00:00.906Z,59.55
2018-11-25T03:00:32.052Z,61.23
2018-11-25T03:01:03.178Z,61.55
2018-11-25T03:01:34.287Z,61.08
2018-11-25T03:02:05.392Z,61.68
2018-11-25T03:02:36.505Z,57.53
2018-11-25T03:03:07.599Z,58.00
2018-11-25T03:03:38.770Z,53.73
2018-11-25T03:04:09.904Z,53.15
2018-11-25T03:04:41.015Z,58.23
2018-11-25T03:05:12.112Z,55.55
2018-11-25T03:05:43.279Z,59.95
2018-11-25T03:06:14.379Z,56.60
2018-11-25T03:06:48.048Z,54.88
2018-11-25T03:07:21.791Z,57.65
2018-11-25T03:07:53.119Z,54.93
2018-11-25T03:08:26.536Z,52.53
2018-11-25T03:08:57.638Z,55.73
2018-11-25T03:09:28.746Z,55.67
2018-11-25T03:10:00.036Z,58.38
2018-11-25T03:10:31.168Z,55.03
2018-11-25T03:11:03.968Z,55.83
2018-11-25T03:11:36.991Z,58.13
2018-11-25T03:12:08.132Z,55.48
2018-11-25T03:12:39.240Z,55.12
2018-11-25T03:13:10.473Z,56.73
2018-11-25T03:13:41.592Z,60.35
2018-11-25T03:14:12.703Z,59.13
2018-11-25T03:14:44.513Z,59.05
2018-11-25T03:15:15.611Z,58.20
2018-11-25T03:15:46.707Z,55.17
2018-11-25T03:16:18.025Z,58.78
2018-11-25T03:16:50.169Z,58.87
2018-11-25T03:17:21.345Z,54.38
2018-11-25T03:17:53.059Z,60.25
2018-11-25T03:18:24.164Z,61.13
2018-11-25T03:18:55.267Z,57.55
2018-11-25T03:19:26.362Z,56.00
2018-11-25T03:19:57.459Z,55.48
2018-11-25T03:20:28.818Z,60.55
2018-11-25T03:21:00.558Z,54.73
2018-11-25T03:21:31.786Z,57.50
2018-11-25T03:22:02.899Z,59.15
2018-11-25T03:22:34.019Z,60.00
2018-11-25T03:23:05.291Z,56.25
2018-11-25T03:23:36.395Z,57.48
2018-11-25T03:24:07.537Z,57.73
2018-11-25T03:24:38.685Z,59.30
2018-11-25T03:25:10.181Z,60.88
2018-11-25T03:25:41.338Z,56.65
2018-11-25T03:26:12.453Z,61.92
2018-11-25T03:26:44.595Z,60.23
2018-11-25T03:27:15.883Z,65.83
2018-11-25T03:27:47.064Z,61.70
2018-11-25T03:28:18.246Z,64.80
2018-11-25T03:28:50.204Z,61.40
2018-11-25T03:29:22.194Z,59.18
2018-11-25T03:29:53.336Z,64.12
2018-11-25T03:30:25.045Z,62.20
2018-11-25T03:30:56.267Z,58.23
2018-11-25T03:31:27.377Z,62.23
2018-11-25T03:31:58.515Z,63.63
2018-11-25T03:32:29.629Z,67.58
2018-11-25T03:33:00.768Z,69.12
2018-11-25T03:33:32.642Z,66.05
2018-11-25T03:34:03.837Z,61.30
2018-11-25T03:34:34.948Z,63.25
2018-11-25T03:35:06.047Z,71.40
2018-11-25T03:35:38.496Z,70.97
2018-11-25T03:36:11.888Z,68.17
2018-11-25T03:36:43.034Z,66.53
2018-11-25T03:37:15.095Z,67.60
2018-11-25T03:37:46.207Z,68.37
2018-11-25T03:38:17.302Z,67.12
2018-11-25T03:38:50.313Z,71.12
2018-11-25T03:39:21.405Z,67.80
2018-11-25T03:39:52.508Z,71.22
2018-11-25T03:40:23.603Z,68.70
2018-11-25T03:40:54.698Z,68.02
2018-11-25T03:41:25.791Z,65.97
2018-11-25T03:41:56.923Z,66.95
2018-11-25T03:42:28.015Z,67.90
2018-11-25T03:42:59.115Z,62.55
2018-11-25T03:43:30.239Z,61.85
2018-11-25T03:44:01.371Z,64.77
2018-11-25T03:44:32.462Z,62.48
2018-11-25T03:45:03.562Z,64.35
2018-11-25T03:45:34.692Z,60.52
2018-11-25T03:46:05.784Z,62.50
2018-11-25T03:46:36.952Z,61.88
2018-11-25T03:47:08.384Z,62.35
2018-11-25T03:47:39.496Z,62.60
2018-11-25T03:48:10.615Z,59.03
2018-11-25T03:48:41.718Z,59.88
2018-11-25T03:49:12.856Z,62.48
2018-11-25T03:49:43.964Z,61.20
2018-11-25T03:50:15.096Z,63.23
2018-11-25T03:50:46.197Z,64.20
2018-11-25T03:51:17.297Z,64.30
2018-11-25T03:51:48.415Z,66.25
2018-11-25T03:52:19.574Z,59.08
2018-11-25T03:52:50.712Z,63.28
2018-11-25T03:53:21.811Z,66.97
2018-11-25T03:53:52.901Z,63.95
2018-11-25T03:54:23.995Z,67.20
2018-11-25T03:54:55.799Z,57.70
2018-11-25T03:55:26.891Z,60.20
2018-11-25T03:55:57.996Z,64.90
2018-11-25T03:56:29.817Z,69.10
2018-11-25T03:57:00.974Z,68.17
2018-11-25T03:57:32.082Z,70.22
2018-11-25T03:58:03.828Z,64.32
2018-11-25T03:58:34.949Z,64.32
2018-11-25T03:59:06.084Z,66.50
2018-11-25T03:59:37.197Z,66.72
2018-11-25T04:00:08.353Z,66.02
2018-11-25T04:00:39.471Z,65.70
2018-11-25T04:01:10.579Z,69.07
2018-11-25T04:01:41.676Z,61.30
2018-11-25T04:02:12.782Z,70.03
2018-11-25T04:02:45.096Z,65.55
2018-11-25T04:03:16.288Z,62.78
2018-11-25T04:03:47.387Z,68.30
2018-11-25T04:04:18.595Z,64.92
2018-11-25T04:04:49.703Z,69.05
2018-11-25T04:05:21.386Z,61.10
2018-11-25T04:05:52.527Z,63.75
2018-11-25T04:06:23.631Z,64.62
2018-11-25T04:06:54.731Z,65.45
2018-11-25T04:07:25.837Z,73.20
2018-11-25T04:07:57.005Z,66.87
2018-11-25T04:08:28.142Z,66.55
2018-11-25T04:08:59.235Z,71.82
2018-11-25T04:09:31.473Z,69.85
2018-11-25T04:10:02.591Z,66.70
2018-11-25T04:10:33.778Z,68.70
2018-11-25T04:11:05.179Z,64.12
2018-11-25T04:11:36.293Z,58.55
2018-11-25T04:12:07.504Z,71.47
2018-11-25T04:12:38.665Z,65.67
2018-11-25T04:13:09.764Z,61.30
2018-11-25T04:13:41.738Z,57.33
2018-11-25T04:14:12.831Z,58.48
2018-11-25T04:14:43.982Z,60.52
2018-11-25T04:15:15.080Z,59.40
2018-11-25T04:15:46.207Z,61.77
2018-11-25T04:16:17.322Z,56.58
2018-11-25T04:16:48.443Z,56.10
2018-11-25T04:17:19.553Z,58.65
2018-11-25T04:17:50.699Z,58.00
2018-11-25T04:18:21.807Z,55.38
2018-11-25T04:18:52.987Z,56.33
2018-11-25T04:19:24.091Z,54.93
2018-11-25T04:19:55.201Z,61.10
2018-11-25T04:20:26.358Z,57.23
2018-11-25T04:20:57.457Z,60.58
2018-11-25T04:21:28.588Z,57.40
2018-11-25T04:21:59.692Z,59.18
2018-11-25T04:22:31.785Z,59.35
2018-11-25T04:23:02.912Z,58.25
2018-11-25T04:23:34.032Z,60.95
2018-11-25T04:24:05.208Z,65.72
2018-11-25T04:24:36.338Z,60.60
2018-11-25T04:25:07.465Z,62.38
2018-11-25T04:25:38.567Z,58.38
2018-11-25T04:26:09.690Z,61.33
2018-11-25T04:26:40.879Z,64.92
2018-11-25T04:27:13.151Z,61.33
2018-11-25T04:27:44.318Z,67.00
2018-11-25T04:28:15.427Z,61.80
2018-11-25T04:28:47.411Z,66.15
2018-11-25T04:29:19.222Z,62.38
2018-11-25T04:29:50.400Z,60.88
2018-11-25T04:30:21.540Z,64.55
2018-11-25T04:30:52.708Z,66.28
2018-11-25T04:31:24.800Z,68.85
2018-11-25T04:31:56.700Z,62.30
2018-11-25T04:32:27.804Z,62.58
2018-11-25T04:32:59.880Z,64.17
2018-11-25T04:33:31.084Z,64.62
2018-11-25T04:34:02.219Z,66.20
2018-11-25T04:34:33.904Z,64.75
2018-11-25T04:35:05.712Z,64.20
2018-11-25T04:35:36.815Z,64.72
2018-11-25T04:36:07.913Z,61.60
2018-11-25T04:36:39.011Z,65.30
2018-11-25T04:37:10.151Z,66.55
2018-11-25T04:37:41.298Z,65.57
2018-11-25T04:38:12.415Z,66.30
2018-11-25T04:38:44.521Z,65.83
2018-11-25T04:39:15.686Z,64.12
2018-11-25T04:39:46.860Z,62.70
2018-11-25T04:40:18.005Z,64.12
2018-11-25T04:40:49.125Z,64.50
2018-11-25T04:41:20.235Z,64.42
2018-11-25T04:41:51.358Z,62.90
2018-11-25T04:42:22.463Z,62.62
2018-11-25T04:42:53.565Z,63.48
2018-11-25T04:43:24.678Z,61.83
2018-11-25T04:43:55.787Z,64.12
2018-11-25T04:44:26.916Z,68.78
2018-11-25T04:44:58.075Z,69.70
2018-11-25T04:45:29.204Z,70.28
2018-11-25T04:46:00.371Z,70.72
2018-11-25T04:46:31.466Z,69.65
2018-11-25T04:47:02.638Z,68.70
2018-11-25T04:47:33.757Z,66.80
2018-11-25T04:48:05.770Z,64.30
2018-11-25T04:48:37.426Z,72.47
2018-11-25T04:49:08.576Z,71.22
2018-11-25T04:49:39.703Z,68.15
2018-11-25T04:50:10.875Z,69.77
2018-11-25T04:50:42.012Z,71.20
2018-11-25T04:51:13.139Z,70.03
2018-11-25T04:51:44.280Z,74.00
2018-11-25T04:52:15.403Z,68.78
2018-11-25T04:52:49.870Z,70.65
2018-11-25T04:53:20.992Z,68.65
2018-11-25T04:53:52.102Z,68.80
2018-11-25T04:54:23.969Z,68.30
2018-11-25T04:54:55.063Z,73.02
2018-11-25T04:55:26.250Z,69.30
2018-11-25T04:55:57.607Z,68.17
2018-11-25T04:56:28.724Z,70.40
2018-11-25T04:56:59.865Z,69.65
2018-11-25T04:57:31.083Z,67.67
2018-11-25T04:58:02.217Z,72.50
2018-11-25T04:58:33.431Z,70.12
2018-11-25T04:59:05.514Z,72.32
2018-11-25T04:59:36.637Z,73.40
2018-11-25T05:00:07.828Z,70.28
2018-11-25T05:00:38.955Z,74.30
2018-11-25T05:01:10.242Z,73.00
2018-11-25T05:01:41.343Z,67.62
2018-11-25T05:02:12.464Z,73.25
2018-11-25T05:02:43.667Z,71.50
2018-11-25T05:03:14.770Z,71.33
2018-11-25T05:03:45.900Z,68.85
2018-11-25T05:04:17.076Z,69.62
2018-11-25T05:04:48.177Z,73.37
2018-11-25T05:05:19.365Z,75.42
2018-11-25T05:05:50.708Z,71.50
2018-11-25T05:06:22.487Z,75.00
2018-11-25T05:06:53.584Z,69.50
2018-11-25T05:07:24.683Z,70.55
2018-11-25T05:07:56.311Z,74.87
2018-11-25T05:08:27.429Z,65.67
2018-11-25T05:08:58.535Z,73.42
2018-11-25T05:09:29.664Z,74.22
2018-11-25T05:10:00.989Z,76.75
2018-11-25T05:10:32.811Z,75.90
2018-11-25T05:11:03.919Z,71.45
2018-11-25T05:11:35.426Z,74.03
2018-11-25T05:12:07.580Z,76.57
2018-11-25T05:12:39.700Z,74.12
2018-11-25T05:13:10.800Z,70.10
2018-11-25T05:13:41.910Z,77.03
2018-11-25T05:14:13.625Z,71.05
2018-11-25T05:14:44.943Z,72.62
2018-11-25T05:15:16.068Z,73.72
2018-11-25T05:15:48.538Z,73.62
2018-11-25T05:16:19.630Z,75.95
2018-11-25T05:16:51.716Z,71.92
2018-11-25T05:17:22.811Z,73.33
2018-11-25T05:17:53.903Z,76.33
2018-11-25T05:18:25.023Z,75.00
2018-11-25T05:18:56.126Z,73.72
2018-11-25T05:19:27.277Z,75.08
2018-11-25T05:19:58.370Z,76.77
2018-11-25T05:20:29.514Z,76.95
2018-11-25T05:21:00.619Z,76.67
2018-11-25T05:21:31.711Z,71.05
2018-11-25T05:22:02.814Z,75.67
2018-11-25T05:22:33.915Z,73.37
2018-11-25T05:23:05.011Z,76.50
2018-11-25T05:23:37.124Z,74.70
2018-11-25T05:24:08.273Z,74.03
2018-11-25T05:24:39.439Z,79.65
2018-11-25T05:25:10.547Z,73.40
2018-11-25T05:25:41.680Z,75.87
2018-11-25T05:26:12.774Z,77.37
2018-11-25T05:26:43.880Z,72.62
2018-11-25T05:27:15.033Z,75.12
2018-11-25T05:27:46.127Z,74.40
2018-11-25T05:28:18.240Z,72.42
2018-11-25T05:28:49.337Z,79.40
2018-11-25T05:29:20.447Z,76.02
2018-11-25T05:29:51.545Z,75.65
2018-11-25T05:30:22.638Z,74.62
2018-11-25T05:30:53.883Z,71.35
2018-11-25T05:31:24.985Z,81.37
2018-11-25T05:31:56.161Z,74.47
2018-11-25T05:32:27.307Z,73.45
2018-11-25T05:32:58.418Z,72.30
2018-11-25T05:33:29.559Z,73.87
2018-11-25T05:34:00.678Z,82.60
2018-11-25T05:34:32.705Z,77.78
2018-11-25T05:35:03.814Z,74.10
2018-11-25T05:35:36.540Z,79.58
2018-11-25T05:36:08.388Z,73.60
2018-11-25T05:36:39.495Z,77.37
2018-11-25T05:37:10.611Z,74.27
2018-11-25T05:37:41.994Z,74.90
2018-11-25T05:38:13.233Z,73.57
2018-11-25T05:38:44.648Z,73.85
2018-11-25T05:39:15.767Z,71.55
2018-11-25T05:39:49.252Z,74.20
2018-11-25T05:40:21.159Z,76.02
2018-11-25T05:40:52.259Z,75.72
2018-11-25T05:41:23.403Z,71.75
2018-11-25T05:41:54.499Z,74.30
2018-11-25T05:42:25.652Z,72.95
2018-11-25T05:42:57.379Z,78.33
2018-11-25T05:43:28.483Z,71.97
2018-11-25T05:43:59.587Z,74.42
2018-11-25T05:44:30.749Z,70.92
2018-11-25T05:45:01.987Z,72.20
2018-11-25T05:45:33.096Z,75.40
2018-11-25T05:46:04.206Z,69.58
2018-11-25T05:46:35.349Z,75.20
2018-11-25T05:47:06.451Z,70.37
2018-11-25T05:47:37.543Z,71.10
2018-11-25T05:48:08.654Z,73.97
2018-11-25T05:48:39.758Z,76.28
2018-11-25T05:49:10.859Z,74.05
2018-11-25T05:49:42.003Z,77.58
2018-11-25T05:50:13.115Z,72.00
2018-11-25T05:50:45.031Z,77.75
2018-11-25T05:51:16.138Z,75.37
2018-11-25T05:51:47.236Z,76.57
2018-11-25T05:52:18.341Z,78.40
2018-11-25T05:52:49.592Z,79.15
2018-11-25T05:53:20.779Z,76.37
2018-11-25T05:53:51.975Z,81.32
2018-11-25T05:54:23.498Z,80.47
2018-11-25T05:54:54.595Z,80.00
2018-11-25T05:55:25.944Z,81.85
2018-11-25T05:55:57.247Z,83.20
2018-11-25T05:56:28.403Z,78.75
2018-11-25T05:56:59.516Z,77.32
2018-11-25T05:57:30.626Z,74.67
2018-11-25T05:58:01.833Z,76.97
2018-11-25T05:58:32.941Z,80.25
2018-11-25T05:59:04.041Z,81.28
2018-11-25T05:59:35.219Z,74.10
2018-11-25T06:00:06.345Z,78.55
2018-11-25T06:00:37.464Z,74.20
2018-11-25T06:01:08.564Z,81.90
2018-11-25T06:01:39.664Z,78.92
2018-11-25T06:02:10.781Z,77.15
2018-11-25T06:02:41.883Z,82.40
2018-11-25T06:03:13.031Z,76.00
2018-11-25T06:03:44.154Z,75.75
2018-11-25T06:04:15.269Z,76.92
2018-11-25T06:04:46.388Z,80.47
2018-11-25T06:05:17.488Z,79.05
2018-11-25T06:05:48.593Z,79.92
2018-11-25T06:06:19.718Z,80.87
2018-11-25T06:06:50.860Z,76.00
2018-11-25T06:07:21.978Z,76.62
2018-11-25T06:07:53.111Z,79.62
2018-11-25T06:08:24.938Z,81.32
2018-11-25T06:08:56.119Z,75.12
2018-11-25T06:09:27.229Z,78.17
2018-11-25T06:09:58.515Z,82.50
2018-11-25T06:10:30.391Z,77.40
2018-11-25T06:11:02.518Z,80.47
2018-11-25T06:11:33.766Z,79.25
2018-11-25T06:12:04.876Z,78.52
2018-11-25T06:12:35.970Z,79.75
2018-11-25T06:13:07.094Z,79.70
2018-11-25T06:13:38.277Z,79.50
2018-11-25T06:14:09.387Z,81.67
2018-11-25T06:14:40.515Z,80.97
2018-11-25T06:15:11.642Z,82.42
2018-11-25T06:15:42.761Z,79.60
2018-11-25T06:16:13.894Z,78.20
2018-11-25T06:16:45.014Z,84.00
2018-11-25T06:17:16.125Z,80.50
2018-11-25T06:17:47.230Z,75.80
2018-11-25T06:18:18.414Z,80.62
2018-11-25T06:18:49.518Z,75.62
2018-11-25T06:19:20.635Z,76.75
2018-11-25T06:19:51.751Z,80.40
2018-11-25T06:20:22.846Z,78.72
2018-11-25T06:20:54.011Z,78.47
2018-11-25T06:21:25.123Z,81.80
2018-11-25T06:21:56.281Z,79.50
2018-11-25T06:22:28.105Z,83.67
2018-11-25T06:22:59.263Z,77.82
2018-11-25T06:23:30.389Z,78.57
2018-11-25T06:24:01.508Z,75.92
2018-11-25T06:24:32.602Z,76.47
2018-11-25T06:25:03.758Z,81.08
2018-11-25T06:25:34.914Z,79.47
2018-11-25T06:26:06.016Z,75.45
2018-11-25T06:26:37.138Z,82.72
2018-11-25T06:27:08.246Z,75.72
2018-11-25T06:27:39.355Z,73.05
2018-11-25T06:28:10.470Z,78.28
2018-11-25T06:28:42.182Z,75.90
2018-11-25T06:29:13.301Z,73.22
2018-11-25T06:29:44.408Z,77.08
2018-11-25T06:30:15.511Z,78.67
2018-11-25T06:30:46.647Z,75.92
2018-11-25T06:31:17.763Z,76.47
2018-11-25T06:31:48.857Z,77.97
2018-11-25T06:32:19.960Z,74.20
2018-11-25T06:32:51.082Z,77.20
2018-11-25T06:33:22.218Z,77.65
2018-11-25T06:33:53.336Z,76.42
2018-11-25T06:34:24.441Z,77.27
2018-11-25T06:34:56.192Z,76.65
2018-11-25T06:35:27.297Z,76.87
2018-11-25T06:35:58.414Z,76.00
2018-11-25T06:36:30.164Z,78.42
2018-11-25T06:37:02.003Z,80.40
2018-11-25T06:37:33.118Z,79.58
2018-11-25T06:38:04.207Z,78.50
2018-11-25T06:38:35.307Z,77.22
2018-11-25T06:39:06.444Z,74.47
2018-11-25T06:39:38.215Z,68.78
2018-11-25T06:40:09.353Z,69.20
2018-11-25T06:40:40.485Z,80.15
2018-11-25T06:41:11.597Z,76.90
2018-11-25T06:41:43.502Z,73.90
2018-11-25T06:42:18.473Z,80.57
2018-11-25T06:42:49.711Z,77.55